Time;durP1;ratioP1;P1;durP2;ratioP2;P2;SDS_P1;SDS_P2;PMS_P1;PMS_P2;Temp;Humidity;BMP_temperature;BMP_pressure;BME280_temperature;BME280_humidity;BME280_pressure;Samples;Min_cycle;Max_cycle;Signal;HPM_P1;HPM_P2
2022/12/28 00:02:22;;;;;;;1.20;1.15;;;;;;;0.62;83.56;100766.59;5101889;28;20555;-63
2022/12/28 00:04:51;;;;;;;0.90;0.90;;;;;;;0.85;83.00;100808.94;5098548;28;20040;-64
2022/12/28 00:07:19;;;;;;;1.55;1.45;;;;;;;0.82;83.76;100806.22;5112415;28;20299;-63
2022/12/28 00:09:48;;;;;;;0.73;0.73;;;;;;;0.79;83.83;100801.06;5102652;28;20132;-63
2022/12/28 00:12:17;;;;;;;24.17;2.77;;;;;;;0.88;83.42;100810.75;5097046;28;20036;-64
2022/12/28 00:14:45;;;;;;;1.27;1.17;;;;;;;0.93;83.72;100800.19;5096417;28;20063;-63
2022/12/28 00:17:16;;;;;;;0.70;0.70;;;;;;;0.97;83.48;100781.97;5106831;28;20059;-63
2022/12/28 00:19:45;;;;;;;1.05;1.05;;;;;;;1.04;83.81;100789.06;5098524;28;20128;-63
2022/12/28 00:22:13;;;;;;;1.00;1.00;;;;;;;1.10;83.88;100789.41;5097167;28;20100;-63
2022/12/28 00:24:42;;;;;;;0.90;0.90;;;;;;;1.12;83.20;100787.84;5097760;28;20042;-64
2022/12/28 00:27:11;;;;;;;7.78;0.90;;;;;;;1.14;83.39;100790.41;5103028;28;20123;-65
2022/12/28 00:29:40;;;;;;;1.20;1.13;;;;;;;1.15;83.22;100782.94;5104135;28;20051;-63
2022/12/28 00:32:09;;;;;;;0.95;0.95;;;;;;;1.08;83.96;100785.91;5096438;28;20113;-63
2022/12/28 00:34:39;;;;;;;1.05;1.05;;;;;;;0.99;83.08;100795.47;5096503;28;20044;-63
2022/12/28 00:37:08;;;;;;;0.43;0.43;;;;;;;0.94;83.11;100791.84;5099898;28;20442;-64
2022/12/28 00:39:42;;;;;;;0.80;0.80;;;;;;;0.92;83.71;100795.91;5093646;28;20139;-63
2022/12/28 00:42:15;;;;;;;1.35;1.25;;;;;;;0.85;83.37;100801.38;5092845;28;20071;-63
2022/12/28 00:44:44;;;;;;;0.50;0.50;;;;;;;0.82;83.24;100806.22;5094843;28;20040;-63
2022/12/28 00:47:16;;;;;;;1.42;1.33;;;;;;;0.72;83.24;100803.13;5096334;28;20131;-63
2022/12/28 00:49:46;;;;;;;3.72;2.50;;;;;;;0.70;83.63;100803.03;5097398;28;20506;-63
2022/12/28 00:52:15;;;;;;;1.33;1.23;;;;;;;0.67;83.23;100801.22;5112425;28;20086;-63
2022/12/28 00:54:43;;;;;;;1.92;1.58;;;;;;;0.69;83.38;100811.38;5111296;28;20396;-63
2022/12/28 00:57:12;;;;;;;0.50;0.50;;;;;;;0.67;83.33;100810.44;5108699;28;20039;-66
2022/12/28 00:59:41;;;;;;;0.57;0.57;;;;;;;0.69;83.21;100818.91;5096522;28;20047;-63
2022/12/28 01:02:09;;;;;;;1.27;1.07;;;;;;;0.67;83.28;100815.44;5096467;28;20043;-63
2022/12/28 01:04:38;;;;;;;1.20;0.85;;;;;;;0.61;83.90;100820.09;5096581;28;20052;-63
2022/12/28 01:07:09;;;;;;;1.15;1.05;;;;;;;0.52;83.58;100822.97;5097076;28;20379;-63
2022/12/28 01:09:38;;;;;;;0.50;0.50;;;;;;;0.50;83.71;100817.00;5099109;28;20071;-63
2022/12/28 01:12:06;;;;;;;0.45;0.45;;;;;;;0.50;83.82;100811.09;5112546;28;20088;-63
2022/12/28 01:14:35;;;;;;;2.10;1.60;;;;;;;0.51;83.15;100815.34;5107292;28;20060;-63
2022/12/28 01:17:04;;;;;;;1.15;1.15;;;;;;;0.51;83.89;100808.66;5110552;28;20028;-63
2022/12/28 01:19:33;;;;;;;1.25;1.15;;;;;;;0.54;83.85;100810.50;5097285;28;20413;-63
2022/12/28 01:22:02;;;;;;;0.70;0.70;;;;;;;0.53;83.51;100803.72;5096565;28;20119;-63
2022/12/28 01:24:32;;;;;;;0.70;0.70;;;;;;;0.52;83.93;100804.53;5100969;28;20549;-63
2022/12/28 01:27:00;;;;;;;0.93;0.93;;;;;;;0.45;83.63;100805.81;5099389;28;20062;-63
2022/12/28 01:29:29;;;;;;;0.82;0.82;;;;;;;0.43;83.45;100804.00;5099519;28;20546;-64
2022/12/28 01:31:58;;;;;;;0.88;0.88;;;;;;;0.35;83.35;100811.09;5095749;28;20036;-63
2022/12/28 01:34:27;;;;;;;1.75;1.65;;;;;;;0.31;83.30;100808.31;5096435;28;20044;-63
2022/12/28 01:36:56;;;;;;;2.28;2.08;;;;;;;0.22;83.28;100807.75;5096612;28;20497;-63
2022/12/28 01:39:25;;;;;;;1.45;1.30;;;;;;;0.22;83.40;100802.75;5094463;28;20109;-63
2022/12/28 01:41:58;;;;;;;2.83;2.35;;;;;;;0.14;83.27;100803.97;5095669;28;20109;-63
2022/12/28 01:44:49;;;;;;;4.97;4.00;;;;;;;0.04;83.04;100797.53;5098155;28;20040;-63
2022/12/28 01:47:26;;;;;;;2.33;2.13;;;;;;;-0.10;82.88;100794.19;5096428;28;20052;-63
2022/12/28 01:50:03;;;;;;;6.40;2.15;;;;;;;-0.15;83.32;100790.59;5096763;28;20051;-63
2022/12/28 01:52:37;;;;;;;1.63;1.52;;;;;;;-0.02;83.40;100793.03;5096229;28;20453;-63
2022/12/28 01:55:11;;;;;;;5.57;1.55;;;;;;;-0.08;83.09;100797.69;5095205;28;20393;-63
2022/12/28 01:57:45;;;;;;;1.73;1.63;;;;;;;-0.13;83.79;100809.09;5096547;28;20044;-62
2022/12/28 02:00:16;;;;;;;1.38;1.30;;;;;;;-0.16;83.44;100803.88;5099557;28;20493;-63
2022/12/28 02:02:52;;;;;;;1.83;1.73;;;;;;;-0.16;83.71;100813.91;5112945;28;20044;-63
2022/12/28 02:05:24;;;;;;;2.95;2.75;;;;;;;-0.05;83.62;100817.91;5102739;28;20054;-63
2022/12/28 02:07:59;;;;;;;1.13;1.05;;;;;;;0.02;83.82;100808.25;5099660;28;20139;-63
2022/12/28 02:10:33;;;;;;;0.80;0.80;;;;;;;0.03;83.69;100810.84;5100064;28;20050;-63
2022/12/28 02:13:15;;;;;;;1.50;1.40;;;;;;;0.12;83.54;100805.53;5097454;28;20052;-63
2022/12/28 02:15:46;;;;;;;2.97;2.67;;;;;;;0.07;83.85;100814.41;5100796;28;20051;-63
2022/12/28 02:18:16;;;;;;;0.80;0.80;;;;;;;-0.04;83.87;100812.13;5103837;28;20048;-63
2022/12/28 02:21:02;;;;;;;1.88;1.75;;;;;;;-0.12;83.77;100809.97;5095391;28;20539;-63
2022/12/28 02:23:50;;;;;;;2.92;2.50;;;;;;;-0.10;83.52;100818.44;5097126;28;20050;-62
2022/12/28 02:26:43;;;;;;;5.47;2.33;;;;;;;-0.13;83.60;100819.13;5101695;28;20393;-63
2022/12/28 02:29:45;;;;;;;1.35;1.25;;;;;;;-0.18;83.73;100810.47;5108755;28;20043;-63
2022/12/28 02:32:29;;;;;;;0.90;0.90;;;;;;;-0.29;83.57;100808.94;5088093;28;20040;-63
2022/12/28 02:35:05;;;;;;;2.03;1.92;;;;;;;-0.25;83.76;100813.38;5106129;28;20486;-62
2022/12/28 02:37:42;;;;;;;1.23;1.13;;;;;;;-0.23;83.54;100810.94;5096329;28;20047;-63
2022/12/28 02:40:16;;;;;;;4.43;1.98;;;;;;;-0.25;83.69;100807.50;5099393;28;20054;-63
2022/12/28 02:42:47;;;;;;;1.42;1.33;;;;;;;-0.24;84.06;100805.06;5097834;28;20040;-63
2022/12/28 02:51:00;;;;;;;5.57;3.33;;;;;;;-0.27;83.44;100789.84;5098148;28;20086;-63
2022/12/28 02:53:45;;;;;;;3.45;3.15;;;;;;;-0.29;83.42;100781.34;5097216;28;20098;-63
2022/12/28 02:56:30;;;;;;;2.72;2.53;;;;;;;-0.28;83.50;100788.09;5109563;28;20048;-64
2022/12/28 02:59:22;;;;;;;5.40;2.65;;;;;;;-0.32;83.67;100776.16;5099998;28;20448;-63
2022/12/28 03:02:10;;;;;;;1.05;1.05;;;;;;;-0.42;83.97;100773.88;5118628;27;20085;-63
2022/12/28 03:04:57;;;;;;;2.35;2.05;;;;;;;-0.46;83.72;100766.97;5124723;27;20474;-64
2022/12/28 03:10:16;;;;;;;3.33;3.03;;;;;;;-0.46;83.58;100756.06;5108282;28;20089;-63
2022/12/28 03:12:51;;;;;;;1.33;1.23;;;;;;;-0.47;83.58;100756.81;5095304;28;20505;-63
2022/12/28 03:15:29;;;;;;;1.30;1.20;;;;;;;-0.53;83.69;100747.31;5094779;28;20494;-63
2022/12/28 03:31:33;;;;;;;3.05;2.83;;;;;;;-0.53;83.82;100739.78;5093334;28;20047;-63
2022/12/28 03:34:08;;;;;;;1.45;1.35;;;;;;;-0.55;84.01;100731.28;5096770;28;20414;-62
2022/12/28 03:36:57;;;;;;;1.10;1.05;;;;;;;-0.50;83.95;100734.94;5094036;28;20135;-65
2022/12/28 03:39:36;;;;;;;1.05;1.05;;;;;;;-0.42;84.14;100732.88;5105472;28;20048;-63
2022/12/28 03:44:58;;;;;;;0.77;0.77;;;;;;;-0.42;84.52;100733.75;5100572;28;20051;-63
2022/12/28 03:47:31;;;;;;;5.50;3.75;;;;;;;-0.37;84.26;100742.44;5094550;28;20097;-63
2022/12/28 03:50:02;;;;;;;4.05;2.17;;;;;;;-0.34;84.10;100737.59;5093294;28;20135;-63
2022/12/28 03:52:33;;;;;;;1.10;1.05;;;;;;;-0.32;83.73;100750.22;5092761;28;20075;-63
2022/12/28 03:55:05;;;;;;;2.42;2.28;;;;;;;-0.32;84.07;100746.06;5094092;28;20040;-63
2022/12/28 03:57:34;;;;;;;4.38;2.38;;;;;;;-0.30;84.09;100747.03;5093168;28;20131;-63
2022/12/28 04:00:08;;;;;;;1.20;1.13;;;;;;;-0.27;83.90;100749.72;5093984;28;20040;-63
2022/12/28 04:02:43;;;;;;;3.00;2.80;;;;;;;-0.27;83.96;100744.72;5095020;28;20086;-63
2022/12/28 04:05:15;;;;;;;1.10;1.05;;;;;;;-0.24;84.31;100739.00;5093022;28;20298;-63
2022/12/28 04:07:44;;;;;;;2.17;1.98;;;;;;;-0.29;83.77;100731.19;5092745;28;20044;-63
2022/12/28 04:10:12;;;;;;;3.30;3.03;;;;;;;-0.33;83.77;100729.28;5106266;28;20512;-63
2022/12/28 04:12:42;;;;;;;3.38;2.55;;;;;;;-0.45;83.60;100730.19;5108290;28;20048;-63
2022/12/28 04:15:21;;;;;;;1.80;1.70;;;;;;;-0.68;83.53;100712.16;5103474;28;20074;-63
2022/12/28 04:17:51;;;;;;;2.03;1.88;;;;;;;-0.66;84.17;100712.25;5096125;28;20512;-63
2022/12/28 04:20:21;;;;;;;3.10;2.10;;;;;;;-0.62;84.21;100708.28;5105390;28;20085;-63
2022/12/28 04:22:51;;;;;;;9.60;1.77;;;;;;;-0.63;83.91;100709.94;5099632;28;20057;-63
2022/12/28 04:25:20;;;;;;;1.00;1.00;;;;;;;-0.71;83.89;100716.09;5106620;28;20036;-63
2022/12/28 04:27:49;;;;;;;1.50;1.40;;;;;;;-0.80;83.94;100718.06;5093203;28;20432;-64
2022/12/28 04:30:29;;;;;;;2.22;2.05;;;;;;;-0.82;83.87;100717.13;5104793;28;20032;-63
2022/12/28 04:32:58;;;;;;;3.28;1.42;;;;;;;-0.81;83.96;100701.28;5096055;28;20559;-64
2022/12/28 04:35:28;;;;;;;1.38;1.27;;;;;;;-0.85;84.19;100690.22;5096645;28;20055;-63
2022/12/28 04:37:57;;;;;;;1.67;1.58;;;;;;;-0.90;83.96;100690.72;5095455;28;21761;-63
2022/12/28 04:40:26;;;;;;;4.47;2.78;;;;;;;-0.88;83.82;100690.03;5098244;28;20035;-63
2022/12/28 04:42:55;;;;;;;1.58;1.48;;;;;;;-0.89;83.65;100694.97;5103045;28;20043;-63
2022/12/28 04:45:24;;;;;;;1.07;1.07;;;;;;;-0.93;83.83;100690.53;5109679;28;20246;-63
2022/12/28 04:47:57;;;;;;;0.88;0.85;;;;;;;-0.92;83.83;100692.28;5099760;28;20108;-63
2022/12/28 04:50:26;;;;;;;1.45;1.35;;;;;;;-0.94;83.52;100683.81;5105100;28;20477;-63
2022/12/28 04:52:58;;;;;;;1.05;1.05;;;;;;;-0.93;83.75;100685.50;5107842;28;20048;-63
2022/12/28 04:55:26;;;;;;;1.05;1.05;;;;;;;-0.90;83.84;100690.72;5100339;28;20048;-63
2022/12/28 04:58:00;;;;;;;3.50;1.20;;;;;;;-0.83;84.08;100692.81;5100059;28;20078;-63
2022/12/28 05:00:29;;;;;;;0.68;0.68;;;;;;;-0.77;84.01;100693.19;5099811;28;20040;-63
2022/12/28 05:02:59;;;;;;;0.60;0.60;;;;;;;-0.69;84.18;100697.00;5107263;28;20101;-63
2022/12/28 05:05:28;;;;;;;1.27;1.20;;;;;;;-0.77;83.91;100684.03;5097421;28;20051;-63
2022/12/28 05:08:00;;;;;;;2.05;1.95;;;;;;;-0.76;84.00;100695.78;5091239;28;20121;-64
2022/12/28 05:10:30;;;;;;;5.07;2.95;;;;;;;-0.70;83.86;100687.78;5095799;28;20509;-64
2022/12/28 05:12:58;;;;;;;3.33;1.77;;;;;;;-0.67;83.85;100690.44;5100515;28;20035;-64
2022/12/28 05:15:27;;;;;;;2.28;2.13;;;;;;;-0.63;84.18;100687.38;5099880;28;20050;-63
2022/12/28 05:17:56;;;;;;;0.70;0.70;;;;;;;-0.66;83.73;100687.19;5109692;28;20119;-63
2022/12/28 05:20:24;;;;;;;1.00;1.00;;;;;;;-0.69;83.69;100681.97;5105419;28;20035;-63
2022/12/28 05:22:53;;;;;;;3.03;1.83;;;;;;;-0.74;83.92;100683.34;5101877;28;20295;-63
2022/12/28 05:25:23;;;;;;;0.95;0.95;;;;;;;-0.77;83.84;100683.19;5101205;28;20047;-63
2022/12/28 05:27:55;;;;;;;1.38;1.27;;;;;;;-0.79;83.84;100679.69;5098750;28;20051;-63
2022/12/28 05:30:23;;;;;;;1.58;1.48;;;;;;;-0.81;83.96;100681.25;5099415;28;20424;-63
2022/12/28 05:32:52;;;;;;;2.75;2.55;;;;;;;-0.81;84.10;100677.09;5111508;28;20069;-63
2022/12/28 05:35:21;;;;;;;1.50;1.38;;;;;;;-0.77;83.99;100679.00;5097944;28;20557;-63
2022/12/28 05:37:50;;;;;;;0.82;0.82;;;;;;;-0.75;84.27;100671.59;5103908;28;20036;-64
2022/12/28 05:40:18;;;;;;;3.40;2.43;;;;;;;-0.70;84.35;100675.25;5101977;28;20036;-64
2022/12/28 05:42:49;;;;;;;2.42;2.28;;;;;;;-0.69;84.23;100676.97;5110971;28;20130;-66
2022/12/28 05:45:19;;;;;;;1.25;1.20;;;;;;;-0.71;84.09;100671.88;5095857;28;20048;-63
2022/12/28 05:47:48;;;;;;;1.83;1.73;;;;;;;-0.78;84.16;100671.41;5105334;28;20036;-64
2022/12/28 05:50:17;;;;;;;1.00;0.93;;;;;;;-0.82;84.06;100672.88;5098401;28;20055;-63
2022/12/28 05:52:45;;;;;;;2.63;2.38;;;;;;;-0.86;84.31;100670.94;5110056;28;20079;-63
2022/12/28 05:55:14;;;;;;;2.17;2.00;;;;;;;-0.90;84.00;100675.69;5109560;28;20068;-63
2022/12/28 05:57:43;;;;;;;4.93;2.25;;;;;;;-0.88;84.24;100679.16;5096244;28;20525;-63
2022/12/28 06:00:14;;;;;;;1.52;1.42;;;;;;;-0.85;84.40;100679.34;5096334;28;20116;-63
2022/12/28 06:02:43;;;;;;;1.17;1.13;;;;;;;-0.86;84.25;100680.09;5096660;28;20407;-65
2022/12/28 06:05:13;;;;;;;0.90;0.90;;;;;;;-0.92;84.19;100683.13;5102313;28;20512;-63
2022/12/28 06:07:42;;;;;;;0.50;0.50;;;;;;;-0.93;84.34;100673.00;5109706;28;20493;-64
2022/12/28 06:10:11;;;;;;;1.70;1.60;;;;;;;-0.91;84.34;100678.97;5107317;28;20409;-63
2022/12/28 06:12:41;;;;;;;0.63;0.63;;;;;;;-0.89;84.34;100682.44;5096622;28;20051;-63
2022/12/28 06:15:10;;;;;;;2.23;2.10;;;;;;;-0.87;84.45;100679.25;5109898;28;20050;-64
2022/12/28 06:17:40;;;;;;;1.92;1.73;;;;;;;-0.79;84.39;100682.19;5109955;28;20048;-63
2022/12/28 06:20:10;;;;;;;2.97;2.78;;;;;;;-0.75;84.46;100682.50;5099392;28;20067;-64
2022/12/28 06:22:39;;;;;;;1.15;1.13;;;;;;;-0.75;84.18;100689.16;5104451;28;20032;-63
2022/12/28 06:25:08;;;;;;;2.33;2.13;;;;;;;-0.80;84.29;100688.00;5116453;28;20040;-63
2022/12/28 06:27:37;;;;;;;1.27;1.17;;;;;;;-0.75;84.11;100681.63;5095310;28;20093;-63
2022/12/28 06:30:07;;;;;;;3.77;1.80;;;;;;;-0.75;84.16;100681.63;5103268;28;20489;-64
2022/12/28 06:32:36;;;;;;;3.60;2.53;;;;;;;-0.70;84.13;100682.78;5099316;28;20158;-63
2022/12/28 06:35:06;;;;;;;2.80;2.60;;;;;;;-0.74;84.15;100683.34;5105211;28;20472;-65
2022/12/28 06:37:35;;;;;;;2.83;2.63;;;;;;;-0.81;84.21;100676.22;5111657;28;20387;-63
2022/12/28 06:40:05;;;;;;;1.23;1.17;;;;;;;-0.85;84.05;100682.72;5107498;28;20064;-63
2022/12/28 06:42:34;;;;;;;1.65;1.55;;;;;;;-0.89;83.98;100687.44;5100244;28;20047;-64
2022/12/28 06:45:03;;;;;;;2.57;1.87;;;;;;;-0.98;84.09;100691.88;5102714;28;20390;-64
2022/12/28 06:47:32;;;;;;;3.13;2.88;;;;;;;-1.02;83.94;100689.97;5106823;28;20119;-63
2022/12/28 06:50:02;;;;;;;1.33;1.23;;;;;;;-1.07;83.82;100706.34;5104975;28;20469;-63
2022/12/28 06:52:32;;;;;;;0.70;0.70;;;;;;;-1.02;84.07;100694.97;5101992;28;20090;-63
2022/12/28 06:55:01;;;;;;;2.15;1.85;;;;;;;-1.01;83.92;100701.75;5108481;28;20104;-63
2022/12/28 06:57:30;;;;;;;2.47;2.28;;;;;;;-1.08;83.98;100697.97;5105137;28;20437;-63
2022/12/28 06:59:59;;;;;;;2.27;1.77;;;;;;;-1.03;83.93;100694.09;5104892;28;20089;-63
2022/12/28 07:02:27;;;;;;;3.63;3.33;;;;;;;-1.01;83.85;100696.72;5100426;28;20353;-63
2022/12/28 07:04:56;;;;;;;2.38;2.17;;;;;;;-0.95;83.85;100692.06;5098424;28;20072;-63
2022/12/28 07:07:25;;;;;;;2.67;2.47;;;;;;;-0.84;83.86;100688.59;5110333;28;20040;-63
2022/12/28 07:09:55;;;;;;;2.40;2.20;;;;;;;-0.89;83.72;100693.31;5110751;28;20059;-63
2022/12/28 07:12:24;;;;;;;1.27;1.17;;;;;;;-0.89;84.35;100697.47;5094778;28;20517;-63
2022/12/28 07:14:53;;;;;;;48.22;45.17;;;;;;;-0.85;84.12;100694.38;5092762;28;20089;-64
2022/12/28 07:17:21;;;;;;;2.07;1.97;;;;;;;-0.89;83.95;100692.47;5097114;28;20051;-63
2022/12/28 07:19:50;;;;;;;5.53;2.17;;;;;;;-0.75;83.98;100696.66;5093987;28;20043;-63
2022/12/28 07:22:19;;;;;;;0.93;0.93;;;;;;;-0.65;83.95;100688.94;5100389;28;20391;-63
2022/12/28 07:24:49;;;;;;;1.75;1.65;;;;;;;-0.59;83.93;100676.75;5108081;28;20043;-64
2022/12/28 07:27:19;;;;;;;3.13;2.92;;;;;;;-0.64;83.80;100680.63;5094817;28;20048;-63
2022/12/28 07:29:48;;;;;;;2.47;2.28;;;;;;;-0.62;83.98;100679.06;5094563;28;20071;-63
2022/12/28 07:32:17;;;;;;;3.65;2.90;;;;;;;-0.49;84.01;100674.00;5097387;28;20100;-63
2022/12/28 07:34:45;;;;;;;2.03;1.93;;;;;;;-0.40;84.43;100674.53;5106376;28;20039;-63
2022/12/28 07:37:14;;;;;;;0.60;0.60;;;;;;;-0.23;83.97;100676.38;5094329;28;20044;-63
2022/12/28 07:39:43;;;;;;;8.73;4.97;;;;;;;-0.02;84.00;100676.72;5100949;28;20039;-64
2022/12/28 07:42:11;;;;;;;3.33;1.90;;;;;;;0.16;84.75;100671.91;5095171;28;20757;-63
2022/12/28 07:44:44;;;;;;;2.87;2.67;;;;;;;0.28;84.82;100667.56;5109168;27;20031;-63
2022/12/28 07:47:17;;;;;;;1.75;1.65;;;;;;;0.34;84.32;100658.72;5106748;28;20386;-63
2022/12/28 07:49:45;;;;;;;1.95;1.80;;;;;;;0.36;83.86;100661.34;5101870;28;20131;-63
2022/12/28 07:52:14;;;;;;;2.37;2.13;;;;;;;0.44;83.67;100662.59;5101292;28;20497;-63
2022/12/28 07:54:43;;;;;;;2.15;1.73;;;;;;;0.54;83.65;100654.78;5099652;28;20418;-63
2022/12/28 07:57:12;;;;;;;3.67;2.47;;;;;;;0.59;84.27;100655.91;5102211;28;20047;-62
2022/12/28 07:59:42;;;;;;;17.27;4.70;;;;;;;0.62;84.31;100656.09;5110284;28;20119;-63
2022/12/28 08:02:10;;;;;;;2.88;2.58;;;;;;;0.59;84.23;100655.91;5105071;28;20048;-63
2022/12/28 08:04:39;;;;;;;2.27;2.17;;;;;;;0.57;84.00;100652.47;5093818;28;20127;-63
2022/12/28 08:07:08;;;;;;;1.17;1.15;;;;;;;0.59;83.97;100655.91;5092764;28;20070;-64
2022/12/28 08:09:37;;;;;;;2.40;1.93;;;;;;;0.54;83.18;100653.16;5093923;28;20513;-62
2022/12/28 08:12:06;;;;;;;0.90;0.90;;;;;;;0.59;83.37;100653.41;5094966;28;20040;-63
2022/12/28 08:14:34;;;;;;;0.90;0.90;;;;;;;0.68;84.08;100653.91;5108516;28;20042;-62
2022/12/28 08:17:04;;;;;;;3.13;2.85;;;;;;;0.80;84.09;100649.53;5095712;28;20052;-63
2022/12/28 08:19:33;;;;;;;2.80;2.60;;;;;;;0.97;83.98;100646.25;5099204;28;20043;-63
2022/12/28 08:22:02;;;;;;;4.43;3.75;;;;;;;1.04;83.42;100643.28;5091966;28;20498;-63
2022/12/28 08:24:30;;;;;;;3.30;2.40;;;;;;;1.14;83.13;100645.50;5094349;28;20039;-63
2022/12/28 08:26:59;;;;;;;3.03;2.58;;;;;;;1.27;83.14;100647.84;5103717;28;20127;-63
2022/12/28 08:29:28;;;;;;;0.90;0.90;;;;;;;1.37;83.53;100643.31;5098776;28;20481;-63
2022/12/28 08:31:56;;;;;;;12.85;3.47;;;;;;;1.48;83.70;100644.69;5102675;28;20044;-63
2022/12/28 08:34:27;;;;;;;2.30;2.10;;;;;;;1.56;83.79;100651.00;5108754;28;20402;-63
2022/12/28 08:36:56;;;;;;;3.35;2.30;;;;;;;1.62;82.73;100648.78;5099136;28;20104;-63
2022/12/28 08:39:24;;;;;;;1.00;0.93;;;;;;;1.70;82.96;100637.44;5103353;28;20032;-63
2022/12/28 08:41:53;;;;;;;0.90;0.90;;;;;;;1.74;82.96;100631.78;5102324;28;20665;-64
2022/12/28 08:44:22;;;;;;;3.88;3.58;;;;;;;1.71;82.68;100636.66;5120257;28;20063;-63
2022/12/28 08:46:50;;;;;;;2.77;2.57;;;;;;;1.66;82.95;100633.03;5117395;27;20096;-63
2022/12/28 08:49:19;;;;;;;4.55;4.10;;;;;;;1.61;81.94;100637.00;5113768;28;20114;-63
2022/12/28 08:51:49;;;;;;;1.55;1.45;;;;;;;1.58;82.16;100624.25;5103532;28;20089;-63
2022/12/28 08:54:18;;;;;;;4.30;2.50;;;;;;;1.67;82.46;100638.16;5113935;28;20435;-63
2022/12/28 08:56:48;;;;;;;1.55;1.45;;;;;;;1.80;82.64;100643.00;5113617;28;20139;-63
2022/12/28 08:59:19;;;;;;;1.63;1.52;;;;;;;1.90;82.21;100644.31;5114374;28;20056;-63
2022/12/28 09:01:48;;;;;;;1.60;1.48;;;;;;;1.97;81.78;100646.34;5093305;28;20044;-63
2022/12/28 09:04:18;;;;;;;3.10;2.80;;;;;;;1.98;82.17;100643.03;5098485;28;20092;-64
2022/12/28 09:06:49;;;;;;;2.63;2.38;;;;;;;2.11;81.37;100655.44;5102978;28;20044;-65
2022/12/28 09:09:19;;;;;;;3.92;3.60;;;;;;;2.36;81.77;100660.84;5106736;28;20489;-65
2022/12/28 09:11:49;;;;;;;1.48;1.38;;;;;;;2.62;81.44;100657.03;5100419;28;20456;-68
2022/12/28 09:14:29;;;;;;;2.97;2.05;;;;;;;2.83;81.75;100647.06;5104602;27;20035;-65
2022/12/28 09:17:12;;;;;;;4.13;2.10;;;;;;;2.92;81.86;100652.53;5098690;28;20048;-64
2022/12/28 09:19:42;;;;;;;2.50;2.28;;;;;;;2.95;81.51;100655.19;5094401;28;20417;-65
2022/12/28 09:22:12;;;;;;;1.10;1.07;;;;;;;2.93;81.06;100649.22;5099794;28;20040;-64
2022/12/28 09:24:40;;;;;;;2.88;2.28;;;;;;;2.91;80.76;100649.13;5097421;28;20048;-64
2022/12/28 09:27:09;;;;;;;2.90;1.20;;;;;;;2.90;81.22;100651.59;5098867;28;20049;-64
2022/12/28 09:29:38;;;;;;;1.23;1.13;;;;;;;2.93;81.26;100639.97;5101141;28;20039;-64
2022/12/28 09:32:07;;;;;;;2.15;2.03;;;;;;;2.98;80.63;100650.25;5107393;28;20082;-64
2022/12/28 09:34:36;;;;;;;2.10;1.90;;;;;;;3.02;81.03;100654.66;5105667;27;20050;-64
2022/12/28 09:37:06;;;;;;;4.38;2.75;;;;;;;3.06;80.53;100642.25;5101512;28;20122;-65
2022/12/28 09:39:36;;;;;;;1.90;1.80;;;;;;;3.12;80.62;100642.53;5098332;28;20164;-64
2022/12/28 09:42:12;;;;;;;0.70;0.70;;;;;;;3.15;80.87;100631.72;5096346;28;20603;-64
2022/12/28 09:44:50;;;;;;;3.08;2.08;;;;;;;3.16;80.73;100638.50;5112292;28;20044;-67
2022/12/28 09:47:24;;;;;;;3.55;3.08;;;;;;;3.27;80.47;100633.09;5100197;28;20063;-64
2022/12/28 09:50:23;;;;;;;1.92;1.83;;;;;;;3.41;80.64;100626.13;5098465;28;20058;-64
2022/12/28 09:53:05;;;;;;;0.70;0.70;;;;;;;3.39;80.35;100628.59;5095502;28;20079;-64
2022/12/28 09:55:37;;;;;;;1.00;0.98;;;;;;;3.41;79.49;100616.03;5108255;28;20075;-64
2022/12/28 09:58:14;;;;;;;1.13;1.02;;;;;;;3.46;79.96;100629.72;5100246;28;20059;-64
2022/12/28 10:00:46;;;;;;;2.05;1.85;;;;;;;3.57;79.24;100627.66;5097809;28;20138;-64
2022/12/28 10:03:18;;;;;;;1.30;1.17;;;;;;;3.65;79.19;100627.16;5096452;28;20056;-64
2022/12/28 10:05:47;;;;;;;1.38;1.27;;;;;;;3.76;79.38;100620.06;5100295;28;20043;-65
2022/12/28 10:08:19;;;;;;;1.70;1.60;;;;;;;3.74;78.86;100609.88;5095146;28;20129;-64
2022/12/28 10:10:51;;;;;;;3.78;2.67;;;;;;;3.75;78.48;100609.09;5096819;28;20044;-65
2022/12/28 10:13:21;;;;;;;0.60;0.60;;;;;;;3.79;78.41;100605.88;5098728;28;20040;-64
2022/12/28 10:16:17;;;;;;;2.10;1.95;;;;;;;3.79;78.11;100603.34;5096183;28;20044;-65
2022/12/28 10:18:48;;;;;;;1.05;1.00;;;;;;;3.80;77.32;100605.09;5106367;28;20135;-64
2022/12/28 10:21:19;;;;;;;17.25;4.20;;;;;;;3.81;77.11;100604.31;5096518;28;20040;-64
2022/12/28 10:23:50;;;;;;;1.33;1.23;;;;;;;3.90;77.55;100596.22;5100576;28;20044;-64
2022/12/28 10:26:42;;;;;;;2.50;2.15;;;;;;;4.01;77.13;100585.75;5101379;28;20048;-65
2022/12/28 10:29:19;;;;;;;1.35;1.25;;;;;;;4.08;77.39;100579.25;5100738;28;20035;-65
2022/12/28 10:31:59;;;;;;;0.85;0.82;;;;;;;4.25;77.01;100577.44;5097647;28;20486;-65
2022/12/28 10:34:29;;;;;;;2.40;1.88;;;;;;;4.42;76.99;100582.31;5101192;28;20036;-65
2022/12/28 10:37:08;;;;;;;1.30;1.17;;;;;;;4.57;76.81;100571.91;5101639;28;20078;-65
2022/12/28 10:39:49;;;;;;;2.25;2.00;;;;;;;4.69;76.61;100572.38;5109193;28;20100;-64
2022/12/28 10:42:26;;;;;;;2.17;1.52;;;;;;;4.71;76.19;100576.69;5100903;28;20034;-64
2022/12/28 10:45:02;;;;;;;3.15;2.50;;;;;;;4.78;75.13;100577.75;5103008;27;20170;-66
2022/12/28 10:47:35;;;;;;;1.88;1.63;;;;;;;4.88;74.71;100563.78;5105461;28;20071;-65
2022/12/28 10:50:06;;;;;;;0.52;0.52;;;;;;;4.97;74.12;100549.78;5095540;28;20044;-64
2022/12/28 10:52:57;;;;;;;3.22;2.03;;;;;;;5.10;73.88;100551.94;5104705;28;20043;-64
2022/12/28 10:55:29;;;;;;;4.03;2.47;;;;;;;5.19;73.59;100549.75;5106057;28;20032;-64
2022/12/28 11:00:56;;;;;;;3.90;1.80;;;;;;;5.31;72.83;100529.91;5120590;27;20904;-65
2022/12/28 11:03:27;;;;;;;3.67;2.05;;;;;;;5.25;72.22;100524.66;5108037;28;20048;-65
2022/12/28 11:06:12;;;;;;;2.95;1.48;;;;;;;5.19;71.75;100515.97;5109590;28;20135;-65
2022/12/28 11:08:43;;;;;;;1.02;1.02;;;;;;;5.17;71.88;100510.00;5106016;27;20040;-65
2022/12/28 11:11:20;;;;;;;1.98;1.85;;;;;;;5.17;71.88;100508.34;5111501;28;20051;-65
2022/12/28 11:13:55;;;;;;;1.20;1.13;;;;;;;5.19;72.10;100511.78;5106294;28;20481;-65
2022/12/28 11:16:26;;;;;;;0.55;0.55;;;;;;;5.20;71.83;100511.00;5110945;28;20055;-65
2022/12/28 11:18:57;;;;;;;0.30;0.30;;;;;;;5.20;71.75;100503.41;5097661;28;20028;-65
2022/12/28 11:21:26;;;;;;;1.08;1.00;;;;;;;5.19;71.80;100500.78;5111520;28;20436;-65
2022/12/28 11:23:55;;;;;;;3.15;1.42;;;;;;;5.17;71.38;100503.28;5107577;28;20090;-65
2022/12/28 11:26:28;;;;;;;2.53;1.45;;;;;;;5.15;71.42;100496.44;5094772;28;20456;-66
2022/12/28 11:28:57;;;;;;;2.92;2.13;;;;;;;5.08;71.59;100492.84;5107111;28;20428;-65
2022/12/28 11:31:33;;;;;;;0.70;0.70;;;;;;;5.05;70.95;100479.22;5120113;27;20055;-66
2022/12/28 11:34:05;;;;;;;0.50;0.50;;;;;;;5.09;70.69;100479.38;5104365;28;20602;-66
2022/12/28 11:36:40;;;;;;;0.80;0.80;;;;;;;5.05;70.99;100442.16;5109240;28;20047;-65
2022/12/28 11:39:30;;;;;;;1.08;1.05;;;;;;;5.29;70.83;100463.22;5105261;28;20453;-65
2022/12/28 11:42:00;;;;;;;1.00;0.98;;;;;;;5.41;70.76;100466.13;5113616;28;20059;-65
2022/12/28 11:44:50;;;;;;;;;;;;;;;5.67;70.88;100463.56;5110791;28;20581;-65
2022/12/28 11:47:34;;;;;;;1.58;1.48;;;;;;;6.03;70.63;100477.38;5110221;28;19924;-65
2022/12/28 11:50:25;;;;;;;1.77;1.67;;;;;;;6.39;70.61;100470.84;5089312;28;20047;-65
2022/12/28 11:52:54;;;;;;;3.50;2.25;;;;;;;6.60;70.34;100463.84;5098151;28;20142;-65
2022/12/28 11:55:43;;;;;;;6.82;2.00;;;;;;;6.85;69.86;100464.50;5101325;28;20036;-65
2022/12/28 11:58:35;;;;;;;0.88;0.88;;;;;;;7.05;69.86;100458.28;5095354;28;20059;-65
2022/12/28 12:01:04;;;;;;;1.40;1.30;;;;;;;7.11;69.57;100445.75;5106530;28;20074;-65
2022/12/28 12:04:00;;;;;;;1.58;1.33;;;;;;;7.26;68.98;100448.66;5106216;28;20036;-65
2022/12/28 12:06:55;;;;;;;1.70;1.42;;;;;;;7.38;68.93;100429.53;5081642;28;20043;-66
2022/12/28 12:09:41;;;;;;;1.27;1.00;;;;;;;7.25;67.68;100426.63;5102646;28;20058;-66
2022/12/28 12:12:32;;;;;;;1.33;1.23;;;;;;;7.13;67.88;100432.28;5092590;28;20039;-67
2022/12/28 12:15:09;;;;;;;5.70;1.40;;;;;;;7.04;68.11;100433.72;5088205;28;20054;-65
2022/12/28 12:17:44;;;;;;;2.65;1.95;;;;;;;6.84;68.15;100424.75;5098600;28;20044;-65
2022/12/28 12:20:23;;;;;;;0.80;0.80;;;;;;;6.62;68.17;100426.69;5101750;28;20043;-66
2022/12/28 12:22:58;;;;;;;1.65;1.55;;;;;;;6.53;68.08;100425.59;5096491;28;20086;-65